createdAt,value
2019-03-11T00:00:24.982Z,13.48
2019-03-11T00:02:55.410Z,14.40
2019-03-11T00:05:23.182Z,14.05
2019-03-11T00:07:50.930Z,13.72
2019-03-11T00:10:18.698Z,14.47
2019-03-11T00:12:46.368Z,14.58
2019-03-11T00:15:15.291Z,15.65
2019-03-11T00:17:43.014Z,16.62
2019-03-11T00:20:10.781Z,17.10
2019-03-11T00:22:38.648Z,17.70
2019-03-11T00:25:06.405Z,17.07
2019-03-11T00:27:34.298Z,16.70
2019-03-11T00:30:08.177Z,15.58
2019-03-11T00:32:35.737Z,15.50
2019-03-11T00:35:04.742Z,14.43
2019-03-11T00:37:32.493Z,14.55
2019-03-11T00:40:00.338Z,15.32
2019-03-11T00:42:28.148Z,14.85
2019-03-11T00:44:55.891Z,13.58
2019-03-11T00:47:23.649Z,14.00
2019-03-11T00:49:51.525Z,14.13
2019-03-11T00:52:19.384Z,12.75
2019-03-11T00:54:47.759Z,17.32
2019-03-11T00:57:15.318Z,15.75
2019-03-11T00:59:43.286Z,13.72
2019-03-11T01:02:11.872Z,12.93
2019-03-11T01:04:39.643Z,11.60
2019-03-11T01:07:07.402Z,12.70
2019-03-11T01:09:35.164Z,12.18
2019-03-11T01:12:02.923Z,17.05
2019-03-11T01:14:30.898Z,19.40
2019-03-11T01:16:58.659Z,18.35
2019-03-11T01:19:26.433Z,16.40
2019-03-11T01:21:54.396Z,17.48
2019-03-11T01:24:23.181Z,17.27
2019-03-11T01:26:51.045Z,18.07
2019-03-11T01:29:18.804Z,17.92
2019-03-11T01:31:46.573Z,19.25
2019-03-11T01:34:14.346Z,14.30
2019-03-11T01:36:43.332Z,16.77
2019-03-11T01:39:11.194Z,14.90
2019-03-11T01:41:38.967Z,12.20
2019-03-11T01:44:06.726Z,12.18
2019-03-11T01:46:34.630Z,12.45
2019-03-11T01:49:02.349Z,14.55
2019-03-11T01:51:30.326Z,13.32
2019-03-11T01:53:58.799Z,13.72
2019-03-11T01:56:26.362Z,13.53
2019-03-11T01:58:54.126Z,13.90
2019-03-11T02:01:22.297Z,15.13
2019-03-11T02:03:50.065Z,14.33
2019-03-11T02:06:17.830Z,14.18
2019-03-11T02:08:45.591Z,14.45
2019-03-11T02:11:13.352Z,13.53
2019-03-11T02:13:41.118Z,12.35
2019-03-11T02:16:08.878Z,12.03
2019-03-11T02:18:36.644Z,12.58
2019-03-11T02:21:04.407Z,13.70
2019-03-11T02:23:32.173Z,12.05
2019-03-11T02:25:59.930Z,10.05
2019-03-11T02:57:15.089Z,6.37
2019-03-11T02:59:43.881Z,6.60
2019-03-11T03:02:29.568Z,5.40
2019-03-11T03:05:02.459Z,5.53
2019-03-11T03:07:30.106Z,4.78
2019-03-11T03:09:57.672Z,4.65
2019-03-11T03:12:25.431Z,5.05
2019-03-11T03:14:53.002Z,4.65
2019-03-11T03:17:20.543Z,4.12
2019-03-11T03:19:48.127Z,4.05
2019-03-11T03:22:15.671Z,3.98
2019-03-11T03:24:43.327Z,5.58
2019-03-11T03:27:10.887Z,5.28
2019-03-11T03:29:38.448Z,5.47
2019-03-11T03:32:05.999Z,4.47
2019-03-11T03:34:33.569Z,4.80
2019-03-11T03:37:01.323Z,4.95
2019-03-11T03:39:28.885Z,4.95
2019-03-11T03:41:56.445Z,9.88
2019-03-11T03:44:24.040Z,6.65
2019-03-11T03:46:51.662Z,5.70
2019-03-11T03:49:19.230Z,5.70
2019-03-11T03:51:46.891Z,7.37
2019-03-11T03:54:15.262Z,5.75
2019-03-11T03:56:42.960Z,6.37
2019-03-11T03:59:10.898Z,6.15
2019-03-11T04:01:38.964Z,6.58
2019-03-11T04:04:06.932Z,6.55
2019-03-11T04:06:34.604Z,7.37
2019-03-11T04:09:02.572Z,6.72
2019-03-11T04:11:31.760Z,5.92
2019-03-11T04:13:59.427Z,5.70
2019-03-11T04:16:28.231Z,6.80
2019-03-11T04:18:55.970Z,6.78
2019-03-11T04:21:23.777Z,7.22
2019-03-11T04:23:51.609Z,7.03
2019-03-11T04:26:19.471Z,9.15
2019-03-11T04:28:47.947Z,9.55
2019-03-11T04:31:15.610Z,12.95
2019-03-11T04:33:43.625Z,11.93
2019-03-11T04:36:11.857Z,6.90
2019-03-11T04:38:39.514Z,7.05
2019-03-11T04:41:07.281Z,5.05
2019-03-11T04:43:35.046Z,4.65
2019-03-11T04:46:02.703Z,6.62
2019-03-11T04:48:30.572Z,6.30
2019-03-11T04:50:58.432Z,5.40
2019-03-11T04:53:26.501Z,5.47
2019-03-11T04:55:54.474Z,6.00
2019-03-11T04:58:22.236Z,6.33
2019-03-11T05:00:50.307Z,6.95
2019-03-11T05:03:18.278Z,6.72
2019-03-11T05:05:46.045Z,8.75
2019-03-11T05:08:13.811Z,8.43
2019-03-11T05:10:41.669Z,8.28
2019-03-11T05:13:09.453Z,10.58
2019-03-11T05:15:37.403Z,9.75
2019-03-11T05:18:05.176Z,10.43
2019-03-11T05:20:33.069Z,8.65
2019-03-11T05:23:00.794Z,9.08
2019-03-11T05:25:28.865Z,8.38
2019-03-11T05:27:56.735Z,6.00
2019-03-11T05:30:24.494Z,7.67
2019-03-11T05:32:52.278Z,7.40
2019-03-11T05:35:20.237Z,6.20
2019-03-11T05:37:47.925Z,8.45
2019-03-11T05:40:20.362Z,7.50
2019-03-11T05:42:47.819Z,6.47
2019-03-11T05:45:16.820Z,5.95
2019-03-11T05:47:44.169Z,5.87
2019-03-11T05:50:15.723Z,5.28
2019-03-11T05:52:43.788Z,8.05
2019-03-11T05:55:11.961Z,11.22
2019-03-11T05:57:39.725Z,8.75
2019-03-11T06:00:29.099Z,10.38
2019-03-11T06:02:57.592Z,7.78
2019-03-11T06:05:25.351Z,6.72
2019-03-11T06:07:53.103Z,6.58
2019-03-11T06:10:20.873Z,10.03
2019-03-11T06:12:48.840Z,8.83
2019-03-11T06:15:16.604Z,9.23
2019-03-11T06:17:45.417Z,6.62
2019-03-11T06:20:19.194Z,6.62
2019-03-11T06:22:46.751Z,5.95
2019-03-11T06:25:14.516Z,10.65
2019-03-11T06:27:42.491Z,7.87
2019-03-11T06:30:10.468Z,9.53
2019-03-11T06:32:38.419Z,10.98
2019-03-11T06:35:06.396Z,6.75
2019-03-11T06:37:34.151Z,9.50
2019-03-11T06:40:04.683Z,8.68
2019-03-11T06:42:32.037Z,9.20
2019-03-11T06:44:59.906Z,8.68
2019-03-11T06:47:27.677Z,7.72
2019-03-11T06:49:55.434Z,7.30
2019-03-11T06:52:23.196Z,8.25
2019-03-11T06:54:51.480Z,7.62
2019-03-11T06:57:19.333Z,10.35
2019-03-11T06:59:47.306Z,22.58
2019-03-11T07:02:15.889Z,10.03
2019-03-11T07:04:43.552Z,8.65
2019-03-11T07:07:11.313Z,11.55
2019-03-11T07:09:39.284Z,15.60
2019-03-11T07:12:07.351Z,12.93
2019-03-11T07:14:35.321Z,12.58
2019-03-11T07:17:03.308Z,21.82
2019-03-11T07:19:31.260Z,10.30
2019-03-11T07:21:59.327Z,10.90
2019-03-11T07:24:27.299Z,10.13
2019-03-11T07:26:55.366Z,11.75
2019-03-11T07:29:23.337Z,8.95
2019-03-11T07:31:51.103Z,12.00
2019-03-11T07:34:19.071Z,19.30
2019-03-11T07:36:47.243Z,10.20
2019-03-11T07:39:15.311Z,9.33
2019-03-11T07:41:43.074Z,10.08
2019-03-11T07:44:11.047Z,22.93
2019-03-11T07:46:39.014Z,8.05
2019-03-11T07:49:06.779Z,8.50
2019-03-11T07:51:34.541Z,7.92
2019-03-11T07:54:02.816Z,12.25
2019-03-11T07:56:30.893Z,11.53
2019-03-11T07:58:58.958Z,9.15
2019-03-11T08:01:27.132Z,14.85
2019-03-11T08:03:55.304Z,10.10
2019-03-11T08:06:23.179Z,12.30
2019-03-11T08:08:51.244Z,7.92
2019-03-11T08:11:19.004Z,9.03
2019-03-11T08:13:46.876Z,18.65
2019-03-11T08:16:14.637Z,13.62
2019-03-11T08:18:42.706Z,11.63
2019-03-11T08:21:10.895Z,9.48
2019-03-11T08:23:38.750Z,16.05
2019-03-11T08:26:06.919Z,13.45
2019-03-11T08:28:34.887Z,8.40
2019-03-11T08:31:02.858Z,9.75
2019-03-11T08:33:30.826Z,7.78
2019-03-11T08:35:58.792Z,8.28
2019-03-11T08:38:26.550Z,7.47
2019-03-11T08:40:54.219Z,8.78
2019-03-11T08:43:22.084Z,11.55
2019-03-11T08:45:50.152Z,8.98
2019-03-11T08:48:18.022Z,9.55
2019-03-11T08:50:46.192Z,8.95
2019-03-11T08:53:14.779Z,10.10
2019-03-11T08:55:42.439Z,6.80
2019-03-11T08:58:10.403Z,8.90
2019-03-11T09:00:39.093Z,5.72
2019-03-11T09:03:07.161Z,7.22
2019-03-11T09:05:35.128Z,7.40
2019-03-11T09:08:03.000Z,7.17
2019-03-11T09:10:30.862Z,5.70
2019-03-11T09:12:58.932Z,6.50
2019-03-11T09:15:27.002Z,6.28
2019-03-11T09:17:55.079Z,6.12
2019-03-11T09:20:22.837Z,6.62
2019-03-11T09:22:50.606Z,6.35
2019-03-11T09:25:27.288Z,8.33
2019-03-11T09:27:54.837Z,7.08
2019-03-11T09:30:23.213Z,6.47
2019-03-11T09:32:51.003Z,13.45
2019-03-11T09:35:19.151Z,8.05
2019-03-11T09:37:47.219Z,6.97
2019-03-11T09:40:16.630Z,8.05
2019-03-11T09:42:44.081Z,7.00
2019-03-11T09:45:15.835Z,6.65
2019-03-11T09:47:43.395Z,6.55
2019-03-11T09:50:12.700Z,9.18
2019-03-11T09:52:40.361Z,7.42
2019-03-11T09:55:13.241Z,6.55
2019-03-11T09:57:40.900Z,8.98
2019-03-11T10:00:26.507Z,7.33
2019-03-11T10:02:54.859Z,6.12
2019-03-11T10:05:22.932Z,7.20
2019-03-11T10:07:51.946Z,7.30
2019-03-11T10:10:26.617Z,7.45
2019-03-11T10:12:54.720Z,7.65
2019-03-11T10:15:22.691Z,7.53
2019-03-11T10:17:51.889Z,8.30
2019-03-11T10:20:19.957Z,7.22
2019-03-11T10:22:48.029Z,8.55
2019-03-11T10:25:16.828Z,8.75
2019-03-11T10:27:44.477Z,12.98
2019-03-11T10:30:23.363Z,13.58
2019-03-11T10:32:51.198Z,12.65
2019-03-11T10:35:31.294Z,14.05
2019-03-11T10:37:49.462Z,10.32
2019-03-11T10:40:29.102Z,12.13
2019-03-11T10:42:57.785Z,14.73
2019-03-11T10:45:31.566Z,13.98
2019-03-11T10:47:55.666Z,14.05
2019-03-11T10:50:24.466Z,12.60
2019-03-11T10:52:52.429Z,9.18
2019-03-11T10:55:24.494Z,11.90
2019-03-11T10:57:52.564Z,13.90
2019-03-11T11:00:33.688Z,13.43
2019-03-11T11:05:29.991Z,11.50
2019-03-11T11:07:57.949Z,12.40
2019-03-11T11:10:26.026Z,11.38
2019-03-11T11:12:53.990Z,14.35
2019-03-11T11:15:24.262Z,11.85
2019-03-11T11:17:51.981Z,10.90
2019-03-11T11:20:20.873Z,14.65
2019-03-11T11:22:49.139Z,9.93
2019-03-11T11:25:23.672Z,14.33
2019-03-11T11:27:51.222Z,11.88
2019-03-11T11:30:21.851Z,9.88
2019-03-11T11:32:49.723Z,9.73
2019-03-11T11:35:17.806Z,10.63
2019-03-11T11:37:45.863Z,10.78
2019-03-11T11:40:24.995Z,10.78
2019-03-11T11:42:52.958Z,15.15
2019-03-11T11:45:22.258Z,11.03
2019-03-11T11:47:49.926Z,10.15
2019-03-11T11:50:19.642Z,9.65
2019-03-11T11:52:47.702Z,8.55
2019-03-11T11:55:17.642Z,8.68
2019-03-11T11:57:45.177Z,7.87
2019-03-11T12:00:19.498Z,7.67
2019-03-11T12:02:47.771Z,8.95
2019-03-11T12:05:16.352Z,11.63
2019-03-11T12:07:44.220Z,8.73
2019-03-11T12:10:21.402Z,9.03
2019-03-11T12:12:49.470Z,11.10
2019-03-11T12:15:17.443Z,9.35
2019-03-11T12:17:46.176Z,9.43
2019-03-11T12:20:26.179Z,7.95
2019-03-11T12:22:53.948Z,9.55
2019-03-11T12:25:21.910Z,8.93
2019-03-11T12:27:54.290Z,10.15
2019-03-11T12:30:25.427Z,8.40
2019-03-11T12:32:53.399Z,9.58
2019-03-11T12:35:21.573Z,9.63
2019-03-11T12:37:49.561Z,11.25
2019-03-11T12:40:17.610Z,10.13
2019-03-11T12:42:46.499Z,8.60
2019-03-11T12:45:18.365Z,8.30
2019-03-11T12:47:46.127Z,7.97
2019-03-11T12:50:18.904Z,7.65
2019-03-11T12:52:50.150Z,7.62
2019-03-11T12:55:18.015Z,8.53
2019-03-11T12:57:45.983Z,7.67
2019-03-11T13:00:19.067Z,7.62
2019-03-11T13:02:47.043Z,6.95
2019-03-11T13:05:15.519Z,8.55
2019-03-11T13:07:43.284Z,6.90
2019-03-11T13:10:26.204Z,7.72
2019-03-11T13:12:54.277Z,6.22
2019-03-11T13:15:22.241Z,9.18
2019-03-11T13:17:50.309Z,9.45
2019-03-11T13:20:25.344Z,7.10
2019-03-11T13:22:53.225Z,6.40
2019-03-11T13:25:21.290Z,5.60
2019-03-11T13:27:49.052Z,5.33
2019-03-11T13:30:16.812Z,5.87
2019-03-11T13:32:44.797Z,5.20
2019-03-11T13:35:12.867Z,10.65
2019-03-11T13:37:40.927Z,6.97
2019-03-11T13:40:10.427Z,6.67
2019-03-11T13:42:37.880Z,5.55
2019-03-11T13:45:08.925Z,6.08
2019-03-11T13:47:36.894Z,5.87
2019-03-11T13:50:10.899Z,5.78
2019-03-11T13:52:39.383Z,4.53
2019-03-11T13:55:10.710Z,4.30
2019-03-11T13:57:38.502Z,3.55
2019-03-11T14:00:14.664Z,4.10
2019-03-11T14:02:42.827Z,4.08
2019-03-11T14:05:10.384Z,3.67
2019-03-11T14:07:38.363Z,5.67
2019-03-11T14:10:10.011Z,4.55
2019-03-11T14:12:38.489Z,5.15
2019-03-11T14:15:14.954Z,5.53
2019-03-11T14:17:42.828Z,5.22
2019-03-11T14:20:12.427Z,5.65
2019-03-11T14:22:41.426Z,4.95
2019-03-11T14:25:10.111Z,35.48
2019-03-11T14:27:37.872Z,4.37
2019-03-11T14:30:12.394Z,6.50
2019-03-11T14:32:40.575Z,5.58
2019-03-11T14:35:10.073Z,5.00
2019-03-11T14:37:37.745Z,5.62
2019-03-11T14:40:10.944Z,4.22
2019-03-11T14:42:38.275Z,4.60
2019-03-11T14:45:09.663Z,3.77
2019-03-11T14:47:37.294Z,4.75
2019-03-11T14:50:07.716Z,4.90
2019-03-11T14:52:35.272Z,4.53
2019-03-11T14:55:05.635Z,3.87
2019-03-11T14:57:33.565Z,2.80
2019-03-11T15:00:01.539Z,4.05
2019-03-11T15:02:30.219Z,5.30
2019-03-11T15:04:57.986Z,3.30
2019-03-11T15:07:25.746Z,4.67
2019-03-11T15:09:53.513Z,4.15
2019-03-11T15:12:21.274Z,4.80
2019-03-11T15:14:49.048Z,6.55
2019-03-11T15:17:16.802Z,4.08
2019-03-11T15:19:44.671Z,3.80
2019-03-11T15:22:12.531Z,2.47
2019-03-11T15:24:40.295Z,2.40
2019-03-11T15:27:08.061Z,3.12
2019-03-11T15:29:35.831Z,3.10
2019-03-11T15:32:03.589Z,2.50
2019-03-11T15:34:31.560Z,1.70
2019-03-11T15:36:59.317Z,2.80
2019-03-11T15:39:27.082Z,2.50
2019-03-11T15:41:54.856Z,4.50
2019-03-11T15:44:22.613Z,2.70
2019-03-11T15:46:50.475Z,2.52
2019-03-11T15:49:18.242Z,2.90
2019-03-11T15:51:46.006Z,3.67
2019-03-11T15:54:14.482Z,4.08
2019-03-11T15:56:42.143Z,3.80
2019-03-11T15:59:09.981Z,2.62
2019-03-11T16:01:38.287Z,2.85
2019-03-11T16:04:06.362Z,2.85
2019-03-11T16:06:34.120Z,2.98
2019-03-11T16:09:02.396Z,4.25
2019-03-11T16:11:31.697Z,2.85
2019-03-11T16:13:59.460Z,4.70
2019-03-11T16:16:32.162Z,7.47
2019-03-11T16:18:59.289Z,4.87
2019-03-11T16:21:27.054Z,5.22
2019-03-11T16:23:56.043Z,6.30
2019-03-11T16:26:23.924Z,4.92
2019-03-11T16:28:51.682Z,5.62
2019-03-11T16:31:19.442Z,6.70
2019-03-11T16:33:47.714Z,6.42
2019-03-11T16:36:15.477Z,6.40
2019-03-11T16:38:43.447Z,5.78
2019-03-11T16:41:11.315Z,6.40
2019-03-11T16:43:39.078Z,4.72
2019-03-11T16:46:06.845Z,3.98
2019-03-11T16:48:34.606Z,5.25
2019-03-11T16:51:02.588Z,4.50
2019-03-11T16:53:31.359Z,3.62
2019-03-11T16:55:59.139Z,3.35
2019-03-11T16:58:26.998Z,3.70
2019-03-11T17:01:03.151Z,3.72
2019-03-11T17:03:32.639Z,3.65
2019-03-11T17:06:00.428Z,3.98
2019-03-11T17:08:28.196Z,3.65
2019-03-11T17:10:56.249Z,3.02
2019-03-11T17:13:23.940Z,3.90
2019-03-11T17:15:51.883Z,3.80
2019-03-11T17:18:19.646Z,6.00
2019-03-11T17:20:47.514Z,2.95
2019-03-11T17:23:15.479Z,2.70
2019-03-11T17:25:43.253Z,3.10
2019-03-11T17:28:11.115Z,3.72
2019-03-11T17:30:38.975Z,3.08
2019-03-11T17:33:06.752Z,3.52
2019-03-11T17:35:34.605Z,2.65
2019-03-11T17:38:02.469Z,2.67
2019-03-11T17:40:31.055Z,4.85
2019-03-11T17:42:58.828Z,3.42
2019-03-11T17:45:26.582Z,2.70
2019-03-11T17:47:54.350Z,3.33
2019-03-11T17:50:23.038Z,5.08
2019-03-11T17:52:51.107Z,3.10
2019-03-11T17:55:19.379Z,3.47
2019-03-11T17:57:47.352Z,3.58
2019-03-11T18:00:25.638Z,3.20
2019-03-11T18:02:54.146Z,3.67
2019-03-11T18:05:21.904Z,3.40
2019-03-11T18:07:49.771Z,4.65
2019-03-11T18:10:17.959Z,2.75
2019-03-11T18:12:45.709Z,2.92
2019-03-11T18:15:13.987Z,2.20
2019-03-11T18:17:41.542Z,3.27
2019-03-11T18:20:17.095Z,3.70
2019-03-11T18:22:44.851Z,3.55
2019-03-11T18:25:14.873Z,3.45
2019-03-11T18:27:42.639Z,2.35
2019-03-11T18:30:29.130Z,2.92
2019-03-11T18:32:56.840Z,2.87
2019-03-11T18:35:25.734Z,2.37
2019-03-11T18:38:03.541Z,2.85
2019-03-11T18:40:23.186Z,4.92
2019-03-11T18:42:50.921Z,4.58
2019-03-11T18:45:18.707Z,3.33
2019-03-11T18:47:46.573Z,4.08
2019-03-11T18:50:17.188Z,4.22
2019-03-11T18:52:44.847Z,3.00
2019-03-11T18:55:13.837Z,3.27
2019-03-11T18:57:41.632Z,2.90
2019-03-11T19:00:15.654Z,2.85
2019-03-11T19:02:44.528Z,2.60
2019-03-11T19:05:18.204Z,3.45
2019-03-11T19:07:45.939Z,2.95
2019-03-11T19:10:14.469Z,2.72
2019-03-11T19:12:42.215Z,3.25
2019-03-11T19:15:15.196Z,3.33
2019-03-11T19:17:42.571Z,7.45
2019-03-11T19:20:12.772Z,3.42
2019-03-11T19:22:41.085Z,4.03
2019-03-11T19:25:10.802Z,3.08
2019-03-11T19:27:38.626Z,3.20
2019-03-11T19:30:12.571Z,3.92
2019-03-11T19:32:40.928Z,3.77
2019-03-11T19:35:08.834Z,4.10
2019-03-11T19:37:36.681Z,4.08
2019-03-11T19:40:10.169Z,7.03
2019-03-11T19:42:38.125Z,4.80
2019-03-11T19:45:09.044Z,3.10
2019-03-11T19:47:37.017Z,3.15
2019-03-11T19:50:08.484Z,2.62
2019-03-11T19:52:36.860Z,3.08
2019-03-11T19:55:05.111Z,2.72
2019-03-11T19:57:33.238Z,2.95
2019-03-11T20:00:01.005Z,2.45
2019-03-11T20:02:29.370Z,2.35
2019-03-11T20:04:57.199Z,2.50
2019-03-11T20:07:26.134Z,2.20
2019-03-11T20:09:54.982Z,3.30
2019-03-11T20:12:23.009Z,2.60
2019-03-11T20:14:51.056Z,2.10
2019-03-11T20:17:18.793Z,3.50
2019-03-11T20:19:46.576Z,2.58
2019-03-11T20:22:14.477Z,2.30
2019-03-11T20:24:42.307Z,3.30
2019-03-11T20:27:10.611Z,3.52
2019-03-11T20:29:38.326Z,2.95
2019-03-11T20:32:06.092Z,2.92
2019-03-11T20:34:34.151Z,3.37
2019-03-11T20:37:02.040Z,2.72
2019-03-11T20:39:29.857Z,3.75
2019-03-11T20:41:57.893Z,2.92
2019-03-11T20:44:25.920Z,3.00
2019-03-11T20:46:53.644Z,2.83
2019-03-11T20:49:21.454Z,2.70
2019-03-11T20:51:49.336Z,3.12
2019-03-11T20:54:17.489Z,2.90
2019-03-11T20:56:45.261Z,2.85
2019-03-11T20:59:13.202Z,2.40
2019-03-11T21:01:41.703Z,2.70
2019-03-11T21:04:10.816Z,3.10
2019-03-11T21:06:38.797Z,3.15
2019-03-11T21:09:06.941Z,3.50
2019-03-11T21:11:36.350Z,2.33
2019-03-11T21:14:04.019Z,3.62
2019-03-11T21:16:31.994Z,2.85
2019-03-11T21:19:00.021Z,2.83
2019-03-11T21:21:27.953Z,2.87
2019-03-11T21:24:01.967Z,2.98
2019-03-11T21:26:25.335Z,3.02
2019-03-11T21:28:53.181Z,2.67
2019-03-11T21:31:21.028Z,2.40
2019-03-11T21:33:58.047Z,2.20
2019-03-11T21:36:18.504Z,2.20
2019-03-11T21:38:46.596Z,2.50
2019-03-11T21:41:14.369Z,2.33
2019-03-11T21:43:43.820Z,2.42
2019-03-11T21:46:11.763Z,2.35
2019-03-11T21:48:39.631Z,2.35
2019-03-11T21:51:07.549Z,2.10
2019-03-11T21:53:35.489Z,2.20
2019-03-11T21:56:03.124Z,2.20
2019-03-11T21:58:31.064Z,2.33
2019-03-11T22:00:59.193Z,2.60
2019-03-11T22:03:26.955Z,2.10
2019-03-11T22:05:54.820Z,2.25
2019-03-11T22:08:22.586Z,2.12
2019-03-11T22:10:50.350Z,2.33
2019-03-11T22:13:18.112Z,2.58
2019-03-11T22:15:45.876Z,2.20
2019-03-11T22:18:13.640Z,1.98
2019-03-11T22:20:41.400Z,2.00
2019-03-11T22:23:09.167Z,2.00
2019-03-11T22:25:37.137Z,1.87
2019-03-11T22:28:04.899Z,2.52
2019-03-11T22:30:33.584Z,3.12
2019-03-11T22:33:02.068Z,3.02
2019-03-11T22:35:30.137Z,2.75
2019-03-11T22:37:57.915Z,2.40
2019-03-11T22:40:25.667Z,2.65
2019-03-11T22:42:53.432Z,2.42
2019-03-11T22:45:21.301Z,2.50
2019-03-11T22:47:49.580Z,3.05
2019-03-11T22:50:18.213Z,2.72
2019-03-11T22:52:46.835Z,3.67
2019-03-11T22:55:14.497Z,3.47
2019-03-11T22:57:42.260Z,3.10
2019-03-11T23:00:46.286Z,2.67
2019-03-11T23:03:15.270Z,2.17
2019-03-11T23:05:57.045Z,2.40
2019-03-11T23:08:12.331Z,2.42
2019-03-11T23:10:40.099Z,2.98
2019-03-11T23:13:07.984Z,2.80
2019-03-11T23:15:36.751Z,2.52
2019-03-11T23:18:04.201Z,2.40
2019-03-11T23:20:32.071Z,2.50
2019-03-11T23:22:59.936Z,2.47
2019-03-11T23:25:27.697Z,2.45
2019-03-11T23:27:55.462Z,2.75
2019-03-11T23:30:23.124Z,2.62
2019-03-11T23:32:50.890Z,2.40
2019-03-11T23:35:18.653Z,2.20
2019-03-11T23:37:46.420Z,2.15
2019-03-11T23:40:14.082Z,2.12
2019-03-11T23:42:41.634Z,2.08
2019-03-11T23:45:10.434Z,2.22
2019-03-11T23:47:37.986Z,2.40
2019-03-11T23:50:10.871Z,2.22
2019-03-11T23:52:38.737Z,1.90
2019-03-11T23:55:09.166Z,1.60
2019-03-11T23:57:37.646Z,2.02
